sensor_id;sensor_type;location;lat;lon;timestamp;pressure;altitude;pressure_sealevel;temperature
67758;BMP180;54562;47.620;18.786;2023-01-24T00:02:39;99706.60;;;4.40
67758;BMP180;54562;47.620;18.786;2023-01-24T00:05:49;99704.40;;;4.40
67758;BMP180;54562;47.620;18.786;2023-01-24T00:08:57;99702.20;;;4.40
67758;BMP180;54562;47.620;18.786;2023-01-24T00:12:06;99702.20;;;4.40
67758;BMP180;54562;47.620;18.786;2023-01-24T00:15:14;99702.00;;;4.44
67758;BMP180;54562;47.620;18.786;2023-01-24T00:18:22;99703.20;;;4.50
67758;BMP180;54562;47.620;18.786;2023-01-24T00:21:30;99701.40;;;4.50
67758;BMP180;54562;47.620;18.786;2023-01-24T00:24:38;99702.40;;;4.50
67758;BMP180;54562;47.620;18.786;2023-01-24T00:27:46;99705.80;;;4.50
67758;BMP180;54562;47.620;18.786;2023-01-24T00:30:55;99707.60;;;4.50
67758;BMP180;54562;47.620;18.786;2023-01-24T00:34:03;99709.00;;;4.52
67758;BMP180;54562;47.620;18.786;2023-01-24T00:37:11;99711.00;;;4.56
67758;BMP180;54562;47.620;18.786;2023-01-24T00:40:19;99709.80;;;4.60
67758;BMP180;54562;47.620;18.786;2023-01-24T00:43:27;99712.40;;;4.60
67758;BMP180;54562;47.620;18.786;2023-01-24T00:46:35;99711.00;;;4.60
67758;BMP180;54562;47.620;18.786;2023-01-24T00:49:43;99714.20;;;4.60
67758;BMP180;54562;47.620;18.786;2023-01-24T00:52:51;99714.00;;;4.60
67758;BMP180;54562;47.620;18.786;2023-01-24T00:55:59;99722.00;;;4.62
67758;BMP180;54562;47.620;18.786;2023-01-24T00:59:07;99724.40;;;4.68
67758;BMP180;54562;47.620;18.786;2023-01-24T01:02:15;99726.40;;;4.70
67758;BMP180;54562;47.620;18.786;2023-01-24T01:05:23;99726.40;;;4.70
67758;BMP180;54562;47.620;18.786;2023-01-24T01:08:31;99729.20;;;4.70
67758;BMP180;54562;47.620;18.786;2023-01-24T01:11:40;99732.60;;;4.70
67758;BMP180;54562;47.620;18.786;2023-01-24T01:14:48;99733.20;;;4.70
67758;BMP180;54562;47.620;18.786;2023-01-24T01:17:57;99735.00;;;4.70
67758;BMP180;54562;47.620;18.786;2023-01-24T01:21:06;99738.60;;;4.70
67758;BMP180;54562;47.620;18.786;2023-01-24T01:24:14;99738.00;;;4.70
67758;BMP180;54562;47.620;18.786;2023-01-24T01:27:23;99738.40;;;4.64
67758;BMP180;54562;47.620;18.786;2023-01-24T01:30:31;99738.60;;;4.60
67758;BMP180;54562;47.620;18.786;2023-01-24T01:33:39;99738.20;;;4.60
67758;BMP180;54562;47.620;18.786;2023-01-24T01:36:48;99744.80;;;4.50
67758;BMP180;54562;47.620;18.786;2023-01-24T01:39:56;99742.60;;;4.50
67758;BMP180;54562;47.620;18.786;2023-01-24T01:43:08;99746.60;;;4.46
67758;BMP180;54562;47.620;18.786;2023-01-24T01:46:23;99750.20;;;4.40
67758;BMP180;54562;47.620;18.786;2023-01-24T01:49:32;99747.60;;;4.40
67758;BMP180;54562;47.620;18.786;2023-01-24T01:52:43;99753.40;;;4.40
67758;BMP180;54562;47.620;18.786;2023-01-24T01:56:00;99754.20;;;4.40
67758;BMP180;54562;47.620;18.786;2023-01-24T01:59:16;99759.00;;;4.36
67758;BMP180;54562;47.620;18.786;2023-01-24T02:02:26;99756.00;;;4.30
67758;BMP180;54562;47.620;18.786;2023-01-24T02:05:34;99760.40;;;4.30
67758;BMP180;54562;47.620;18.786;2023-01-24T02:08:43;99762.80;;;4.20
67758;BMP180;54562;47.620;18.786;2023-01-24T02:11:54;99763.20;;;4.20
67758;BMP180;54562;47.620;18.786;2023-01-24T02:15:10;99762.20;;;4.10
67758;BMP180;54562;47.620;18.786;2023-01-24T02:18:41;99767.00;;;4.10
67758;BMP180;54562;47.620;18.786;2023-01-24T02:21:55;99765.00;;;4.10
67758;BMP180;54562;47.620;18.786;2023-01-24T02:25:14;99759.60;;;4.10
67758;BMP180;54562;47.620;18.786;2023-01-24T02:28:24;99764.60;;;4.00
67758;BMP180;54562;47.620;18.786;2023-01-24T02:31:53;99763.60;;;4.00
67758;BMP180;54562;47.620;18.786;2023-01-24T02:35:02;99771.20;;;4.00
67758;BMP180;54562;47.620;18.786;2023-01-24T02:38:18;99771.80;;;4.00
67758;BMP180;54562;47.620;18.786;2023-01-24T02:41:33;99771.00;;;4.00
67758;BMP180;54562;47.620;18.786;2023-01-24T02:44:52;99772.80;;;4.00
67758;BMP180;54562;47.620;18.786;2023-01-24T02:48:04;99778.00;;;4.00
67758;BMP180;54562;47.620;18.786;2023-01-24T02:51:12;99776.40;;;3.90
67758;BMP180;54562;47.620;18.786;2023-01-24T02:54:46;99784.00;;;3.90
67758;BMP180;54562;47.620;18.786;2023-01-24T02:57:55;99782.60;;;3.90
67758;BMP180;54562;47.620;18.786;2023-01-24T03:01:16;99785.20;;;3.90
67758;BMP180;54562;47.620;18.786;2023-01-24T03:04:25;99775.20;;;3.90
67758;BMP180;54562;47.620;18.786;2023-01-24T03:07:33;99779.20;;;3.88
67758;BMP180;54562;47.620;18.786;2023-01-24T03:10:50;99782.40;;;3.80
67758;BMP180;54562;47.620;18.786;2023-01-24T03:13:59;99784.60;;;3.80
67758;BMP180;54562;47.620;18.786;2023-01-24T03:17:26;99791.20;;;3.80
67758;BMP180;54562;47.620;18.786;2023-01-24T03:20:51;99791.00;;;3.70
67758;BMP180;54562;47.620;18.786;2023-01-24T03:24:17;99794.20;;;3.70
67758;BMP180;54562;47.620;18.786;2023-01-24T03:27:43;99794.00;;;3.68
67758;BMP180;54562;47.620;18.786;2023-01-24T03:31:10;99795.00;;;3.60
67758;BMP180;54562;47.620;18.786;2023-01-24T03:34:35;99794.40;;;3.60
67758;BMP180;54562;47.620;18.786;2023-01-24T03:37:51;99791.20;;;3.60
67758;BMP180;54562;47.620;18.786;2023-01-24T03:41:31;99799.40;;;3.50
67758;BMP180;54562;47.620;18.786;2023-01-24T03:44:39;99796.20;;;3.50
67758;BMP180;54562;47.620;18.786;2023-01-24T03:47:51;99797.60;;;3.50
67758;BMP180;54562;47.620;18.786;2023-01-24T03:51:12;99799.20;;;3.50
67758;BMP180;54562;47.620;18.786;2023-01-24T03:54:37;99800.40;;;3.50
67758;BMP180;54562;47.620;18.786;2023-01-24T03:57:45;99798.80;;;3.50
67758;BMP180;54562;47.620;18.786;2023-01-24T04:00:54;99799.80;;;3.50
67758;BMP180;54562;47.620;18.786;2023-01-24T04:04:03;99797.20;;;3.52
67758;BMP180;54562;47.620;18.786;2023-01-24T04:07:12;99799.20;;;3.52
67758;BMP180;54562;47.620;18.786;2023-01-24T04:10:32;99799.60;;;3.58
67758;BMP180;54562;47.620;18.786;2023-01-24T04:13:42;99801.00;;;3.52
67758;BMP180;54562;47.620;18.786;2023-01-24T04:16:50;99803.40;;;3.52
67758;BMP180;54562;47.620;18.786;2023-01-24T04:19:58;99806.80;;;3.50
67758;BMP180;54562;47.620;18.786;2023-01-24T04:23:08;99800.20;;;3.50
67758;BMP180;54562;47.620;18.786;2023-01-24T04:26:16;99806.80;;;3.50
67758;BMP180;54562;47.620;18.786;2023-01-24T04:29:24;99801.60;;;3.50
67758;BMP180;54562;47.620;18.786;2023-01-24T04:32:32;99805.60;;;3.50
67758;BMP180;54562;47.620;18.786;2023-01-24T04:35:41;99808.40;;;3.40
67758;BMP180;54562;47.620;18.786;2023-01-24T04:38:50;99808.00;;;3.40
67758;BMP180;54562;47.620;18.786;2023-01-24T04:41:57;99816.60;;;3.40
67758;BMP180;54562;47.620;18.786;2023-01-24T04:45:08;99818.20;;;3.40
67758;BMP180;54562;47.620;18.786;2023-01-24T04:48:16;99817.60;;;3.40
67758;BMP180;54562;47.620;18.786;2023-01-24T04:51:25;99814.40;;;3.30
67758;BMP180;54562;47.620;18.786;2023-01-24T04:54:33;99817.40;;;3.28
67758;BMP180;54562;47.620;18.786;2023-01-24T04:57:41;99821.80;;;3.20
67758;BMP180;54562;47.620;18.786;2023-01-24T05:00:50;99819.40;;;3.20
67758;BMP180;54562;47.620;18.786;2023-01-24T05:04:00;99822.80;;;3.20
67758;BMP180;54562;47.620;18.786;2023-01-24T05:07:08;99825.60;;;3.20
67758;BMP180;54562;47.620;18.786;2023-01-24T05:10:16;99824.60;;;3.20
67758;BMP180;54562;47.620;18.786;2023-01-24T05:13:24;99823.20;;;3.20
67758;BMP180;54562;47.620;18.786;2023-01-24T05:16:32;99829.80;;;3.20
67758;BMP180;54562;47.620;18.786;2023-01-24T05:19:40;99827.40;;;3.20
67758;BMP180;54562;47.620;18.786;2023-01-24T05:22:48;99828.60;;;3.20
67758;BMP180;54562;47.620;18.786;2023-01-24T05:26:01;99837.40;;;3.18
67758;BMP180;54562;47.620;18.786;2023-01-24T05:29:09;99832.80;;;3.18
67758;BMP180;54562;47.620;18.786;2023-01-24T05:32:17;99836.60;;;3.16
67758;BMP180;54562;47.620;18.786;2023-01-24T05:35:25;99843.20;;;3.18
67758;BMP180;54562;47.620;18.786;2023-01-24T05:38:33;99847.20;;;3.20
67758;BMP180;54562;47.620;18.786;2023-01-24T05:41:41;99847.00;;;3.20
67758;BMP180;54562;47.620;18.786;2023-01-24T05:44:49;99849.80;;;3.20
67758;BMP180;54562;47.620;18.786;2023-01-24T05:47:58;99849.40;;;3.20
67758;BMP180;54562;47.620;18.786;2023-01-24T05:51:08;99849.00;;;3.20
67758;BMP180;54562;47.620;18.786;2023-01-24T05:54:16;99850.60;;;3.20
67758;BMP180;54562;47.620;18.786;2023-01-24T05:57:24;99847.20;;;3.14
67758;BMP180;54562;47.620;18.786;2023-01-24T06:00:32;99854.60;;;3.10
67758;BMP180;54562;47.620;18.786;2023-01-24T06:03:41;99853.60;;;3.10
67758;BMP180;54562;47.620;18.786;2023-01-24T06:06:49;99855.80;;;3.10
67758;BMP180;54562;47.620;18.786;2023-01-24T06:09:57;99862.60;;;3.00
67758;BMP180;54562;47.620;18.786;2023-01-24T06:13:05;99866.40;;;3.00
67758;BMP180;54562;47.620;18.786;2023-01-24T06:16:16;99868.60;;;3.00
67758;BMP180;54562;47.620;18.786;2023-01-24T06:19:26;99873.40;;;3.00
67758;BMP180;54562;47.620;18.786;2023-01-24T06:22:44;99875.20;;;2.92
67758;BMP180;54562;47.620;18.786;2023-01-24T06:25:57;99879.00;;;2.90
67758;BMP180;54562;47.620;18.786;2023-01-24T06:29:07;99879.80;;;2.80
67758;BMP180;54562;47.620;18.786;2023-01-24T06:32:23;99885.60;;;2.80
67758;BMP180;54562;47.620;18.786;2023-01-24T06:35:42;99890.20;;;2.70
67758;BMP180;54562;47.620;18.786;2023-01-24T06:38:51;99888.80;;;2.68
67758;BMP180;54562;47.620;18.786;2023-01-24T06:42:00;99895.40;;;2.60
67758;BMP180;54562;47.620;18.786;2023-01-24T06:45:09;99895.00;;;2.54
67758;BMP180;54562;47.620;18.786;2023-01-24T06:48:15;99888.20;;;2.50
67758;BMP180;54562;47.620;18.786;2023-01-24T06:51:21;99893.60;;;2.40
67758;BMP180;54562;47.620;18.786;2023-01-24T06:54:28;99891.20;;;2.38
67758;BMP180;54562;47.620;18.786;2023-01-24T06:57:34;99898.80;;;2.30
67758;BMP180;54562;47.620;18.786;2023-01-24T07:00:40;99898.20;;;2.20
67758;BMP180;54562;47.620;18.786;2023-01-24T07:03:47;99898.40;;;2.10
67758;BMP180;54562;47.620;18.786;2023-01-24T07:06:53;99901.20;;;2.00
67758;BMP180;54562;47.620;18.786;2023-01-24T07:10:00;99909.40;;;1.90
67758;BMP180;54562;47.620;18.786;2023-01-24T07:13:06;99908.00;;;1.88
67758;BMP180;54562;47.620;18.786;2023-01-24T07:16:12;99911.60;;;1.80
67758;BMP180;54562;47.620;18.786;2023-01-24T07:19:20;99913.20;;;1.74
67758;BMP180;54562;47.620;18.786;2023-01-24T07:22:29;99908.60;;;1.70
67758;BMP180;54562;47.620;18.786;2023-01-24T07:25:36;99909.00;;;1.70
67758;BMP180;54562;47.620;18.786;2023-01-24T07:28:43;99910.80;;;1.66
67758;BMP180;54562;47.620;18.786;2023-01-24T07:31:50;99918.00;;;1.60
67758;BMP180;54562;47.620;18.786;2023-01-24T07:34:57;99921.80;;;1.60
67758;BMP180;54562;47.620;18.786;2023-01-24T07:38:03;99924.00;;;1.60
67758;BMP180;54562;47.620;18.786;2023-01-24T07:41:10;99934.00;;;1.60
67758;BMP180;54562;47.620;18.786;2023-01-24T07:44:17;99939.00;;;1.64
67758;BMP180;54562;47.620;18.786;2023-01-24T07:47:23;99939.40;;;1.70
67758;BMP180;54562;47.620;18.786;2023-01-24T07:50:31;99940.20;;;1.76
67758;BMP180;54562;47.620;18.786;2023-01-24T07:53:37;99949.00;;;1.80
67758;BMP180;54562;47.620;18.786;2023-01-24T07:56:44;99953.00;;;1.86
67758;BMP180;54562;47.620;18.786;2023-01-24T07:59:50;99955.60;;;1.90
67758;BMP180;54562;47.620;18.786;2023-01-24T08:02:56;99952.80;;;1.94
67758;BMP180;54562;47.620;18.786;2023-01-24T08:06:04;99956.40;;;2.00
67758;BMP180;54562;47.620;18.786;2023-01-24T08:09:11;99952.60;;;2.10
67758;BMP180;54562;47.620;18.786;2023-01-24T08:12:17;99955.40;;;2.10
67758;BMP180;54562;47.620;18.786;2023-01-24T08:15:23;99954.80;;;2.20
67758;BMP180;54562;47.620;18.786;2023-01-24T08:18:30;99958.80;;;2.22
67758;BMP180;54562;47.620;18.786;2023-01-24T08:21:37;99958.60;;;2.30
67758;BMP180;54562;47.620;18.786;2023-01-24T08:24:43;99962.80;;;2.40
67758;BMP180;54562;47.620;18.786;2023-01-24T08:27:49;99962.60;;;2.50
67758;BMP180;54562;47.620;18.786;2023-01-24T08:30:58;99972.60;;;2.60
67758;BMP180;54562;47.620;18.786;2023-01-24T08:34:05;99974.20;;;2.60
67758;BMP180;54562;47.620;18.786;2023-01-24T08:37:11;99979.00;;;2.70
67758;BMP180;54562;47.620;18.786;2023-01-24T08:40:18;99985.60;;;2.80
67758;BMP180;54562;47.620;18.786;2023-01-24T08:43:25;99985.80;;;2.80
67758;BMP180;54562;47.620;18.786;2023-01-24T08:46:32;99986.60;;;2.90
67758;BMP180;54562;47.620;18.786;2023-01-24T08:49:38;99986.00;;;2.98
67758;BMP180;54562;47.620;18.786;2023-01-24T08:52:45;99989.80;;;3.00
67758;BMP180;54562;47.620;18.786;2023-01-24T08:55:51;99985.80;;;3.00
67758;BMP180;54562;47.620;18.786;2023-01-24T08:58:57;99987.00;;;3.10
67758;BMP180;54562;47.620;18.786;2023-01-24T09:02:05;99990.80;;;3.10
67758;BMP180;54562;47.620;18.786;2023-01-24T09:05:11;99993.20;;;3.20
67758;BMP180;54562;47.620;18.786;2023-01-24T09:08:18;99993.20;;;3.40
67758;BMP180;54562;47.620;18.786;2023-01-24T09:11:25;99989.60;;;3.60
67758;BMP180;54562;47.620;18.786;2023-01-24T09:14:31;99990.20;;;3.76
67758;BMP180;54562;47.620;18.786;2023-01-24T09:17:38;99997.60;;;3.90
67758;BMP180;54562;47.620;18.786;2023-01-24T09:20:45;99996.80;;;4.04
67758;BMP180;54562;47.620;18.786;2023-01-24T09:23:52;100001.20;;;4.20
67758;BMP180;54562;47.620;18.786;2023-01-24T09:26:59;100005.60;;;4.30
67758;BMP180;54562;47.620;18.786;2023-01-24T09:30:06;100001.40;;;4.34
67758;BMP180;54562;47.620;18.786;2023-01-24T09:33:13;99997.40;;;4.40
67758;BMP180;54562;47.620;18.786;2023-01-24T09:36:19;99997.20;;;4.40
67758;BMP180;54562;47.620;18.786;2023-01-24T09:39:26;100000.00;;;4.50
67758;BMP180;54562;47.620;18.786;2023-01-24T09:42:39;99999.20;;;4.54
67758;BMP180;54562;47.620;18.786;2023-01-24T09:45:55;99994.60;;;4.60
67758;BMP180;54562;47.620;18.786;2023-01-24T09:49:15;99994.80;;;4.60
67758;BMP180;54562;47.620;18.786;2023-01-24T09:52:34;99988.80;;;4.64
67758;BMP180;54562;47.620;18.786;2023-01-24T09:55:43;99977.20;;;4.70
67758;BMP180;54562;47.620;18.786;2023-01-24T09:59:01;99978.80;;;4.72
67758;BMP180;54562;47.620;18.786;2023-01-24T10:02:18;99979.40;;;4.80
67758;BMP180;54562;47.620;18.786;2023-01-24T10:05:28;99980.00;;;4.90
67758;BMP180;54562;47.620;18.786;2023-01-24T10:08:39;99975.80;;;5.10
67758;BMP180;54562;47.620;18.786;2023-01-24T10:11:57;99964.40;;;5.14
67758;BMP180;54562;47.620;18.786;2023-01-24T10:15:15;99960.60;;;5.20
67758;BMP180;54562;47.620;18.786;2023-01-24T10:18:41;99960.80;;;5.20
67758;BMP180;54562;47.620;18.786;2023-01-24T10:22:12;99967.20;;;5.20
67758;BMP180;54562;47.620;18.786;2023-01-24T10:25:24;99968.20;;;5.30
67758;BMP180;54562;47.620;18.786;2023-01-24T10:28:36;99958.40;;;5.32
67758;BMP180;54562;47.620;18.786;2023-01-24T10:31:45;99953.40;;;5.50
67758;BMP180;54562;47.620;18.786;2023-01-24T10:34:58;99958.20;;;5.70
67758;BMP180;54562;47.620;18.786;2023-01-24T10:38:11;99950.80;;;5.90
67758;BMP180;54562;47.620;18.786;2023-01-24T10:41:22;99945.00;;;6.12
67758;BMP180;54562;47.620;18.786;2023-01-24T10:44:30;99937.80;;;6.30
67758;BMP180;54562;47.620;18.786;2023-01-24T10:47:46;99934.80;;;6.40
67758;BMP180;54562;47.620;18.786;2023-01-24T10:50:55;99933.60;;;6.50
67758;BMP180;54562;47.620;18.786;2023-01-24T10:54:21;99936.20;;;6.48
67758;BMP180;54562;47.620;18.786;2023-01-24T10:57:43;99929.60;;;6.50
67758;BMP180;54562;47.620;18.786;2023-01-24T11:00:57;99925.60;;;6.50
67758;BMP180;54562;47.620;18.786;2023-01-24T11:04:15;99921.20;;;6.50
67758;BMP180;54562;47.620;18.786;2023-01-24T11:07:30;99918.60;;;6.48
67758;BMP180;54562;47.620;18.786;2023-01-24T11:10:38;99922.20;;;6.50
67758;BMP180;54562;47.620;18.786;2023-01-24T11:13:47;99918.80;;;6.50
67758;BMP180;54562;47.620;18.786;2023-01-24T11:16:57;99920.40;;;6.56
67758;BMP180;54562;47.620;18.786;2023-01-24T11:20:22;99917.00;;;6.56
67758;BMP180;54562;47.620;18.786;2023-01-24T11:23:31;99914.80;;;6.52
67758;BMP180;54562;47.620;18.786;2023-01-24T11:26:50;99905.80;;;6.50
67758;BMP180;54562;47.620;18.786;2023-01-24T11:30:13;99907.00;;;6.46
67758;BMP180;54562;47.620;18.786;2023-01-24T11:33:33;99892.80;;;6.40
67758;BMP180;54562;47.620;18.786;2023-01-24T11:36:46;99888.20;;;6.40
67758;BMP180;54562;47.620;18.786;2023-01-24T11:40:02;99885.80;;;6.40
67758;BMP180;54562;47.620;18.786;2023-01-24T11:43:23;99888.20;;;6.40
67758;BMP180;54562;47.620;18.786;2023-01-24T11:46:44;99887.80;;;6.50
67758;BMP180;54562;47.620;18.786;2023-01-24T11:50:17;99885.80;;;6.52
67758;BMP180;54562;47.620;18.786;2023-01-24T11:53:49;99885.80;;;6.60
67758;BMP180;54562;47.620;18.786;2023-01-24T11:57:02;99877.40;;;6.64
67758;BMP180;54562;47.620;18.786;2023-01-24T12:00:23;99878.20;;;6.68
67758;BMP180;54562;47.620;18.786;2023-01-24T12:03:44;99873.20;;;6.70
67758;BMP180;54562;47.620;18.786;2023-01-24T12:07:02;99870.00;;;6.72
67758;BMP180;54562;47.620;18.786;2023-01-24T12:10:21;99864.00;;;6.78
67758;BMP180;54562;47.620;18.786;2023-01-24T12:13:35;99868.20;;;6.70
67758;BMP180;54562;47.620;18.786;2023-01-24T12:16:55;99868.60;;;6.70
67758;BMP180;54562;47.620;18.786;2023-01-24T12:20:21;99871.00;;;6.70
67758;BMP180;54562;47.620;18.786;2023-01-24T12:23:42;99865.40;;;6.70
67758;BMP180;54562;47.620;18.786;2023-01-24T12:26:54;99863.20;;;6.70
67758;BMP180;54562;47.620;18.786;2023-01-24T12:30:06;99866.60;;;6.72
67758;BMP180;54562;47.620;18.786;2023-01-24T12:33:17;99872.00;;;6.80
67758;BMP180;54562;47.620;18.786;2023-01-24T12:36:35;99871.40;;;6.80
67758;BMP180;54562;47.620;18.786;2023-01-24T12:39:48;99870.20;;;6.90
67758;BMP180;54562;47.620;18.786;2023-01-24T12:43:03;99870.40;;;6.92
67758;BMP180;54562;47.620;18.786;2023-01-24T12:46:15;99871.80;;;7.04
67758;BMP180;54562;47.620;18.786;2023-01-24T12:49:29;99872.60;;;7.20
67758;BMP180;54562;47.620;18.786;2023-01-24T12:52:57;99867.80;;;7.30
67758;BMP180;54562;47.620;18.786;2023-01-24T12:56:11;99863.40;;;7.50
67758;BMP180;54562;47.620;18.786;2023-01-24T12:59:24;99861.60;;;7.90
67758;BMP180;54562;47.620;18.786;2023-01-24T13:06:12;99863.80;;;8.20
67758;BMP180;54562;47.620;18.786;2023-01-24T13:09:26;99852.20;;;8.50
67758;BMP180;54562;47.620;18.786;2023-01-24T13:12:53;99856.20;;;8.80
67758;BMP180;54562;47.620;18.786;2023-01-24T13:16:10;99860.20;;;9.02
67758;BMP180;54562;47.620;18.786;2023-01-24T13:19:36;99858.60;;;9.12
67758;BMP180;54562;47.620;18.786;2023-01-24T13:22:58;99852.60;;;9.30
67758;BMP180;54562;47.620;18.786;2023-01-24T13:26:58;99859.20;;;9.50
67758;BMP180;54562;47.620;18.786;2023-01-24T13:30:24;99856.20;;;9.52
67758;BMP180;54562;47.620;18.786;2023-01-24T13:33:38;99861.00;;;9.10
67758;BMP180;54562;47.620;18.786;2023-01-24T13:36:52;99861.20;;;8.78
67758;BMP180;54562;47.620;18.786;2023-01-24T13:40:04;99855.20;;;8.50
67758;BMP180;54562;47.620;18.786;2023-01-24T13:43:59;99855.60;;;8.20
67758;BMP180;54562;47.620;18.786;2023-01-24T13:47:23;99859.20;;;8.00
67758;BMP180;54562;47.620;18.786;2023-01-24T13:50:30;99858.40;;;7.90
67758;BMP180;54562;47.620;18.786;2023-01-24T13:54:00;99865.40;;;8.10
67758;BMP180;54562;47.620;18.786;2023-01-24T13:57:24;99858.60;;;8.10
67758;BMP180;54562;47.620;18.786;2023-01-24T14:00:31;99854.60;;;7.90
67758;BMP180;54562;47.620;18.786;2023-01-24T14:03:39;99859.20;;;7.70
67758;BMP180;54562;47.620;18.786;2023-01-24T14:06:46;99860.40;;;7.50
67758;BMP180;54562;47.620;18.786;2023-01-24T14:10:00;99856.20;;;7.38
67758;BMP180;54562;47.620;18.786;2023-01-24T14:13:43;99860.20;;;7.22
67758;BMP180;54562;47.620;18.786;2023-01-24T14:17:26;99860.60;;;7.10
67758;BMP180;54562;47.620;18.786;2023-01-24T14:20:42;99862.40;;;7.00
67758;BMP180;54562;47.620;18.786;2023-01-24T14:23:50;99872.40;;;6.90
67758;BMP180;54562;47.620;18.786;2023-01-24T14:27:08;99874.20;;;6.70
67758;BMP180;54562;47.620;18.786;2023-01-24T14:30:42;99874.00;;;6.60
67758;BMP180;54562;47.620;18.786;2023-01-24T14:33:54;99869.00;;;6.48
67758;BMP180;54562;47.620;18.786;2023-01-24T14:37:07;99872.20;;;6.38
67758;BMP180;54562;47.620;18.786;2023-01-24T14:40:22;99874.20;;;6.30
67758;BMP180;54562;47.620;18.786;2023-01-24T14:43:36;99876.20;;;6.20
67758;BMP180;54562;47.620;18.786;2023-01-24T14:46:43;99882.40;;;6.10
67758;BMP180;54562;47.620;18.786;2023-01-24T14:49:57;99881.00;;;5.90
67758;BMP180;54562;47.620;18.786;2023-01-24T14:53:23;99879.20;;;5.80
67758;BMP180;54562;47.620;18.786;2023-01-24T14:56:39;99880.60;;;5.70
67758;BMP180;54562;47.620;18.786;2023-01-24T14:59:46;99877.60;;;5.60
67758;BMP180;54562;47.620;18.786;2023-01-24T15:03:03;99888.00;;;5.50
67758;BMP180;54562;47.620;18.786;2023-01-24T15:06:18;99888.80;;;5.34
67758;BMP180;54562;47.620;18.786;2023-01-24T15:09:26;99888.80;;;5.22
67758;BMP180;54562;47.620;18.786;2023-01-24T15:12:34;99887.20;;;5.20
67758;BMP180;54562;47.620;18.786;2023-01-24T15:15:41;99893.00;;;5.10
67758;BMP180;54562;47.620;18.786;2023-01-24T15:18:49;99895.40;;;5.00
67758;BMP180;54562;47.620;18.786;2023-01-24T15:21:57;99906.00;;;4.90
67758;BMP180;54562;47.620;18.786;2023-01-24T15:25:14;99900.60;;;4.80
67758;BMP180;54562;47.620;18.786;2023-01-24T15:28:28;99906.40;;;4.72
67758;BMP180;54562;47.620;18.786;2023-01-24T15:31:36;99915.20;;;4.70
67758;BMP180;54562;47.620;18.786;2023-01-24T15:34:43;99917.60;;;4.60
67758;BMP180;54562;47.620;18.786;2023-01-24T15:38:02;99918.80;;;4.60
67758;BMP180;54562;47.620;18.786;2023-01-24T15:41:20;99920.20;;;4.50
67758;BMP180;54562;47.620;18.786;2023-01-24T15:44:27;99923.60;;;4.44
67758;BMP180;54562;47.620;18.786;2023-01-24T15:47:34;99927.80;;;4.40
67758;BMP180;54562;47.620;18.786;2023-01-24T15:50:56;99929.00;;;4.30
67758;BMP180;54562;47.620;18.786;2023-01-24T15:54:14;99925.00;;;4.30
67758;BMP180;54562;47.620;18.786;2023-01-24T15:57:26;99931.60;;;4.20
67758;BMP180;54562;47.620;18.786;2023-01-24T16:00:34;99933.20;;;4.20
67758;BMP180;54562;47.620;18.786;2023-01-24T16:03:51;99940.00;;;4.10
67758;BMP180;54562;47.620;18.786;2023-01-24T16:06:58;99930.00;;;4.06
67758;BMP180;54562;47.620;18.786;2023-01-24T16:10:08;99940.80;;;4.00
67758;BMP180;54562;47.620;18.786;2023-01-24T16:13:26;99940.20;;;3.96
67758;BMP180;54562;47.620;18.786;2023-01-24T16:16:36;99939.60;;;3.90
67758;BMP180;54562;47.620;18.786;2023-01-24T16:19:42;99944.00;;;3.80
67758;BMP180;54562;47.620;18.786;2023-01-24T16:22:49;99942.60;;;3.78
67758;BMP180;54562;47.620;18.786;2023-01-24T16:25:57;99941.00;;;3.70
67758;BMP180;54562;47.620;18.786;2023-01-24T16:29:05;99946.20;;;3.60
67758;BMP180;54562;47.620;18.786;2023-01-24T16:32:21;99946.00;;;3.52
67758;BMP180;54562;47.620;18.786;2023-01-24T16:35:29;99948.20;;;3.50
67758;BMP180;54562;47.620;18.786;2023-01-24T16:38:39;99946.20;;;3.40
67758;BMP180;54562;47.620;18.786;2023-01-24T16:41:47;99941.80;;;3.32
67758;BMP180;54562;47.620;18.786;2023-01-24T16:44:57;99938.00;;;3.30
67758;BMP180;54562;47.620;18.786;2023-01-24T16:48:06;99940.80;;;3.20
67758;BMP180;54562;47.620;18.786;2023-01-24T16:51:13;99946.60;;;3.20
67758;BMP180;54562;47.620;18.786;2023-01-24T16:54:20;99944.80;;;3.20
67758;BMP180;54562;47.620;18.786;2023-01-24T16:57:26;99950.60;;;3.10
67758;BMP180;54562;47.620;18.786;2023-01-24T17:00:33;99954.80;;;3.10
67758;BMP180;54562;47.620;18.786;2023-01-24T17:03:39;99951.20;;;3.10
67758;BMP180;54562;47.620;18.786;2023-01-24T17:06:46;99949.20;;;3.10
67758;BMP180;54562;47.620;18.786;2023-01-24T17:09:52;99951.00;;;3.10
67758;BMP180;54562;47.620;18.786;2023-01-24T17:12:59;99948.80;;;3.02
67758;BMP180;54562;47.620;18.786;2023-01-24T17:16:07;99953.40;;;3.00
67758;BMP180;54562;47.620;18.786;2023-01-24T17:19:15;99956.80;;;3.00
67758;BMP180;54562;47.620;18.786;2023-01-24T17:22:21;99951.80;;;3.00
67758;BMP180;54562;47.620;18.786;2023-01-24T17:25:29;99951.80;;;3.00
67758;BMP180;54562;47.620;18.786;2023-01-24T17:28:36;99944.00;;;3.00
67758;BMP180;54562;47.620;18.786;2023-01-24T17:31:43;99948.40;;;2.90
67758;BMP180;54562;47.620;18.786;2023-01-24T17:34:50;99947.00;;;2.90
67758;BMP180;54562;47.620;18.786;2023-01-24T17:37:56;99952.00;;;2.90
67758;BMP180;54562;47.620;18.786;2023-01-24T17:41:03;99954.20;;;2.90
67758;BMP180;54562;47.620;18.786;2023-01-24T17:44:11;99951.60;;;2.80
67758;BMP180;54562;47.620;18.786;2023-01-24T17:47:17;99956.80;;;2.80
67758;BMP180;54562;47.620;18.786;2023-01-24T17:50:24;99959.80;;;2.80
67758;BMP180;54562;47.620;18.786;2023-01-24T17:53:30;99963.00;;;2.80
67758;BMP180;54562;47.620;18.786;2023-01-24T17:56:37;99963.60;;;2.76
67758;BMP180;54562;47.620;18.786;2023-01-24T17:59:43;99968.20;;;2.70
67758;BMP180;54562;47.620;18.786;2023-01-24T18:02:49;99964.80;;;2.70
67758;BMP180;54562;47.620;18.786;2023-01-24T18:05:56;99965.60;;;2.70
67758;BMP180;54562;47.620;18.786;2023-01-24T18:09:03;99962.20;;;2.70
67758;BMP180;54562;47.620;18.786;2023-01-24T18:12:09;99960.20;;;2.68
67758;BMP180;54562;47.620;18.786;2023-01-24T18:15:16;99963.20;;;2.70
67758;BMP180;54562;47.620;18.786;2023-01-24T18:18:22;99963.00;;;2.64
67758;BMP180;54562;47.620;18.786;2023-01-24T18:21:30;99962.80;;;2.66
67758;BMP180;54562;47.620;18.786;2023-01-24T18:24:37;99952.00;;;2.64
67758;BMP180;54562;47.620;18.786;2023-01-24T18:27:43;99958.20;;;2.60
67758;BMP180;54562;47.620;18.786;2023-01-24T18:30:49;99952.00;;;2.60